Weather observations for the past three days for
Steven A Bean Municipal Airport
Metric (Imperial)
Date Time (edt) Wind (kph) Vis. (km) Weather Sky Cond. Temperature (ºC) Relative Humidity Wind Chill (°C) Heat Index (°C) Pressure Precipitation (cm)
Air Dwpt 6 hour altimeter (cm) sea level (mb) 1 hr 3 hr 6 hr
Max. Min.
02 15:15 SE 15 16.09 Overcast OVC012 4 2 87% 1 75.79 0.0
02 14:55 Vrbl 11 16.09 Overcast OVC011 4 2 87% 2 75.79 0.0
02 14:35 SE 17 16.09 Overcast OVC010 3 2 93% -1 75.82 0.0
02 14:15 SE 13 16.09 Overcast OVC011 3 2 93% 0 75.82 0.0
02 13:55 SE 11 16.09 Overcast OVC011 3 2 93% 0 75.82 0.0
02 13:35 SE 9 9.66 Light Unknown Precip OVC012 3 2 93% 1 75.82 0.0
02 13:15 SE 9 8.05 Light Unknown Precip OVC013 3 1 87% 1 75.82 0.0
02 12:55 SE 13 16.09 Overcast OVC015 3 1 87% 0 75.82 0.0
02 12:35 Vrbl 11 16.09 Overcast OVC016 4 1 81% 2 75.82 0.0
02 12:15 S 11 16.09 Overcast OVC017 3 1 87% 0 75.84 0.0
02 11:55 S 15 16.09 Overcast OVC018 3 0 81% -0 75.84 0.0
02 11:35 Vrbl 9 16.09 Overcast BKN016 OVC020 3 1 87% 1 75.87 0.0
02 11:15 Vrbl 7 16.09 Overcast OVC014 3 1 87% 1 75.87 0.0
02 10:55 SE 9 16.09 Overcast BKN015 OVC021 3 2 93% 1 75.87 0.0
02 10:35 Vrbl 11 16.09 Overcast SCT014 OVC022 3 2 93% 0 75.87 0.0
02 10:15 SE 11 14.48 Light Unknown Precip SCT014 BKN022 OVC027 3 1 87% 0 75.9 0.0
02 09:55 SE 6 G 19 16.09 Overcast SCT009 BKN015 OVC027 3 2 93% 75.9 0.0
02 09:35 Calm 16.09 Overcast BKN008 BKN013 OVC024 2 1 93% 75.92 0.0
02 09:15 SE 9 12.87 Overcast BKN007 BKN019 OVC023 2 1 93% -0 75.92 0.0
02 08:55 Calm 16.09 Overcast BKN007 BKN013 OVC027 2 2 100% 75.92 0.0
02 08:35 SE 6 12.87 Light Unknown Precip FEW007 SCT019 BKN027 2 1 93% 75.92 0.0
02 08:15 Calm 16.09 Mostly Cloudy FEW006 FEW039 BKN050 2 1 93% 75.9 0.0
02 07:55 Calm 16.09 Overcast FEW031 SCT038 OVC050 2 1 93% 75.92 0.0
02 07:35 Calm 14.48 Light Unknown Precip FEW023 FEW027 BKN032 1 0 93% 75.9 0.0
02 07:15 Calm 12.87 Light Unknown Precip FEW027 SCT032 1 0 93% 75.92 0.0
02 06:55 Calm 3.22 Unknown Precip SCT041 1 0 93% 75.92 0.0
02 06:35 Calm 12.87 Light Unknown Precip FEW031 OVC043 1 -1 87% 75.95 0.0
02 06:15 Calm 16.09 Overcast SCT030 BKN041 OVC055 0 -2 87% 75.92 0.0
02 05:55 SW 7 16.09 Overcast FEW029 SCT041 OVC055 0 -2 87% -2 75.9 0.0
02 05:35 NW 6 16.09 Mostly Cloudy FEW033 SCT050 BKN060 0 -2 87% 75.87 0.0
02 05:15 NW 7 16.09 Overcast FEW032 BKN042 OVC055 0 -2 87% -2 75.87 0.0
02 04:55 Calm 16.09 Overcast SCT044 BKN055 OVC070 0 -2 87% 75.87 0.0
02 04:35 Calm 16.09 Overcast FEW047 BKN060 OVC070 0 -2 87% 75.87 0.0
02 04:15 Calm 16.09 Overcast FEW047 OVC060 0 -2 87% 75.84 0.0
01 13:35 W 22 16.09 Fair CLR 7 -2 53% 4 75.59 0.0
01 13:15 W 24 16.09 Partly Cloudy FEW029 SCT090 7 -2 53% 4 75.59 0.0
01 12:55 NW 22 16.09 NULL NULL 6 -2 57% 2 75.62 0.0
01 12:35 W 17 G 33 16.09 NULL NULL 6 -1 61% 3 75.62 0.0
01 12:15 W 22 G 37 16.09 NULL NULL 6 -1 61% 2 75.62 0.0
01 11:55 W 17 G 30 16.09 Overcast BKN028 OVC090 6 -2 57% 3 75.62 0.0
01 11:35 NW 24 G 35 16.09 Overcast OVC026 5 -2 61% 1 75.59 0.0
01 11:15 NW 24 G 39 16.09 Overcast BKN028 BKN032 OVC090 6 -2 57% 2 75.59 0.0
01 10:55 NW 22 G 31 16.09 Overcast BKN027 OVC090 5 -2 61% 1 75.59 0.0
01 10:35 NW 22 G 37 16.09 Mostly Cloudy BKN026 BKN090 5 -1 66% 1 75.59 0.0
01 10:15 NW 20 G 33 16.09 Mostly Cloudy BKN024 BKN090 4 -2 65% 0 75.59 0.0
01 09:55 NW 22 G 37 16.09 Partly Cloudy SCT024 SCT090 4 -2 65% -0 75.59 0.0
01 09:35 W 19 G 31 16.09 Mostly Cloudy BKN024 4 -2 65% 0 75.59 0.0
01 09:15 W 19 16.09 Mostly Cloudy BKN025 4 -1 70% 0 75.59 0.0
01 08:55 NW 20 G 30 16.09 Partly Cloudy SCT020 4 -1 70% 0 75.59 0.0
01 08:35 NW 22 16.09 Partly Cloudy SCT019 3 -1 75% -1 75.59 0.0
01 08:15 NW 19 G 28 16.09 Partly Cloudy SCT019 SCT100 3 0 81% -1 75.59 0.0
01 07:55 W 19 16.09 Partly Cloudy SCT016 SCT110 2 -1 81% -2 75.59 0.0
01 07:35 W 15 G 24 16.09 Overcast OVC016 2 0 87% -2 75.59 0.0
01 07:15 Vrbl 7 G 19 16.09 Overcast OVC015 1 0 93% -1 75.57 0.0
01 06:55 W 9 G 22 16.09 Overcast OVC014 1 0 93% -2 75.57 0.0
01 06:35 W 11 16.09 Overcast OVC014 1 0 93% -2 75.57 0.0
01 06:15 W 15 16.09 Overcast OVC015 1 0 93% -3 75.54 0.0
01 05:55 W 15 16.09 Mostly Cloudy BKN016 BKN022 BKN100 1 0 93% -3 75.54 0.0
01 05:35 W 9 16.09 Overcast FEW017 OVC095 1 0 93% -2 75.54 0.0
01 05:15 W 13 16.09 Overcast FEW019 SCT065 OVC090 1 0 93% -2 75.51 0.0
01 04:55 W 15 G 28 16.09 Overcast FEW016 BKN032 OVC065 2 1 93% -2 75.51 0.0 0.03
01 04:35 W 9 G 24 16.09 Overcast SCT013 BKN018 OVC065 2 1 93% -0 75.49 0.0
01 04:15 W 13 G 26 16.09 Overcast BKN012 BKN019 OVC060 3 2 93% 0 75.49 0.0
01 01:55 W 17 16.09 Overcast BKN012 BKN020 OVC060 3 2 93% -1 75.49 0.0
01 01:35 W 13 16.09 Overcast OVC011 4 3 93% 1 75.46 0.0
01 01:15 Vrbl 11 16.09 Overcast OVC011 4 3 93% 2 75.46 0.0
01 00:55 W 13 16.09 Overcast OVC011 4 3 93% 1 75.46 0.0
01 00:35 W 9 16.09 Overcast OVC012 4 4 100% 2 75.46 0.0
01 00:15 NW 15 16.09 Overcast BKN012 OVC018 4 4 100% 1 75.46 0.0
30 23:55 W 15 G 26 16.09 Overcast SCT013 BKN017 OVC038 4 4 100% 1 75.46 0.0
30 23:35 W 13 16.09 Overcast SCT018 OVC037 4 4 100% 1 75.46 0.0
30 23:15 W 11 16.09 Overcast OVC036 4 4 100% 2 75.49 0.0
30 22:55 NW 17 16.09 Overcast OVC035 5 4 93% 2 75.49 0.0
30 22:35 W 11 16.09 Overcast OVC032 5 4 93% 3 75.49 0.0
30 22:15 NW 9 16.09 Overcast FEW016 OVC029 5 4 93% 3 75.49 0.0
30 21:55 Vrbl 9 16.09 Overcast SCT004 BKN012 OVC028 5 5 100% 3 75.51 0.0
30 21:35 Calm 2.82 Fog/Mist BKN004 OVC008 5 5 100% 75.49 0.0
30 21:15 Calm 2.01 Light Unknown Precip OVC009 5 5 100% 75.51 0.0
30 20:55 N 6 6.44 Fog/Mist FEW004 OVC011 5 5 100% 75.49 0.0
30 20:35 NE 9 6.44 Fog/Mist BKN003 OVC012 5 5 100% 3 75.49 0.0
30 20:15 NE 9 3.22 Light Unknown Precip OVC003 5 5 100% 3 75.46 0.0
30 19:55 E 7 16.09 Overcast OVC004 5 5 100% 4 75.46 0.0
30 19:35 Calm 14.48 Overcast OVC004 5 5 100% 75.46 0.0
30 19:15 Calm 2.82 Fog/Mist OVC004 5 5 100% 75.46 0.0
30 18:55 Calm 1.61 Fog/Mist OVC004 5 5 100% 75.44 0.0
30 18:35 Calm 2.82 Fog/Mist OVC003 5 5 100% 75.44 0.0
30 18:15 Calm 16.09 Overcast FEW006 OVC016 6 6 100% 75.41 0.0
30 17:55 Calm 16.09 Overcast FEW008 OVC016 6 6 100% 75.41 0.0
30 17:35 E 7 16.09 Overcast SCT009 OVC015 6 6 100% 5 75.44 0.0
30 17:15 E 7 16.09 Overcast SCT008 OVC015 6 6 100% 5 75.44 0.0
30 16:55 NE 7 16.09 Overcast BKN006 BKN009 OVC013 6 6 100% 5 75.44 0.0 0.08
30 16:35 Calm 16.09 Overcast BKN005 OVC030 6 6 100% 75.44 0.0
30 16:15 E 7 12.87 Light Rain FEW005 SCT024 BKN030 6 6 100% 5 75.44 0.0
30 15:55 Calm 8.05 Light Rain SCT004 SCT007 BKN025 6 6 100% 75.46 0.0 0.28
30 15:35 Calm 8.05 Light Rain SCT026 BKN033 OVC046 6 6 100% 75.46 0.0
30 15:15 S 6 8.05 Light Rain SCT005 SCT008 OVC025 6 6 100% 75.49 0.0
30 14:55 Calm 4.02 Light Rain BKN006 OVC014 6 6 100% 75.51 0.0 0.36
30 14:35 Calm 4.83 Light Rain BKN006 BKN014 OVC024 6 6 100% 75.49 0.0
30 14:15 Calm 4.83 Light Rain BKN006 BKN015 OVC047 6 6 100% 75.49 0.0
30 13:55 Vrbl 6 4.02 Light Rain FEW004 SCT018 BKN033 6 6 100% 75.51 0.0 0.1
30 13:35 Vrbl 6 2.82 Fog/Mist SCT006 BKN009 BKN017 6 6 100% 75.51 0.0
30 13:15 S 7 2.82 Fog/Mist FEW005 BKN010 BKN016 6 6 100% 5 75.51 0.0
30 12:55 Vrbl 7 16.09 Mostly Cloudy BKN015 BKN021 6 5 93% 5 75.51 0.0
30 12:35 SE 11 11.27 Light Rain BKN015 BKN028 OVC039 6 5 93% 4 75.51 0.0
30 12:15 Vrbl 7 12.87 Mostly Cloudy FEW012 SCT016 BKN030 6 5 93% 5 75.54 0.0
30 11:55 SE 7 G 24 4.83 Light Rain SCT013 SCT021 BKN032 5 5 100% 4 75.54 0.0 0.1
30 11:35 SE 11 9.66 Light Unknown Precip SCT011 BKN015 BKN022 6 5 93% 4 75.57 0.0
30 11:15 SE 13 G 22 16.09 Overcast BKN013 OVC034 5 4 93% 2 75.57 0.0
30 10:55 SE 13 G 24 16.09 Light Unknown Precip OVC012 5 4 93% 2 75.57 0.0
30 10:35 SE 17 16.09 Overcast OVC013 6 4 87% 3 75.59 0.0
30 10:15 SE 19 16.09 Overcast OVC012 6 4 87% 3 75.57 0.0
30 09:55 SE 17 16.09 Overcast OVC013 6 4 87% 3 75.59 0.0
30 09:35 Vrbl 6 G 26 16.09 Overcast OVC012 6 4 87% 75.59 0.0
30 09:15 SE 15 G 24 16.09 Overcast OVC012 6 4 87% 3 75.62 0.0
30 08:55 Vrbl 9 16.09 Overcast OVC013 6 4 87% 4 75.62 0.0
30 08:35 E 7 16.09 Overcast BKN014 BKN034 OVC048 5 4 93% 4 75.64 0.0
30 08:15 Vrbl 9 G 20 9.66 Fog/Mist FEW014 BKN034 OVC047 5 4 93% 3 75.64 0.0
30 07:55 Vrbl 9 14.48 Mostly Cloudy FEW010 SCT014 BKN023 5 4 93% 3 75.64 0.0 0.03
30 07:35 SE 11 6.44 Light Unknown Precip BKN009 BKN016 OVC024 4 4 100% 2 75.64 0.0
30 07:15 Calm 8.05 Fog/Mist BKN010 OVC017 4 4 100% 75.64 0.0
30 06:55 Calm 14.48 Mostly Cloudy BKN012 BKN018 BKN022 4 4 100% 75.67 0.0 0.08
30 06:35 S 7 12.87 Light Rain SCT008 BKN012 BKN018 4 4 100% 2 75.64 0.0
30 06:15 Calm 6.44 Light Rain BKN006 OVC010 4 4 100% 75.62 0.0
30 05:55 Calm 3.22 Light Unknown Precip BKN006 BKN009 OVC013 4 4 100% 75.64 0.0 0.05
30 05:35 Calm 8.05 Fog/Mist BKN012 OVC020 4 4 100% 75.64 0.0
30 05:15 SE 11 4.83 Fog/Mist BKN011 BKN023 OVC031 4 4 100% 2 75.67 0.0
30 04:55 Vrbl 7 8.05 Fog/Mist OVC012 4 4 100% 2 75.67 0.0
30 04:35 SE 7 4.02 Fog/Mist OVC012 4 4 100% 2 75.67 0.0
30 04:15 Vrbl 7 4.02 Light Unknown Precip SCT009 OVC013 4 4 100% 2 75.69 0.0
Date Time (edt) Wind (kph) Vis. (km) Weather Sky Cond. Air Dwpt Max. Min. Relative Humidity Wind Chill (°C) Heat Index (°C) altimeter (cm) sea level (mb) 1 hr 3 hr 6 hr
6 hour
Temperature (ºC) Pressure Precipitation (cm)